createdAt,value
2022-08-20T00:00:49.041Z,23.50
2022-08-20T00:03:29.446Z,23.40
2022-08-20T00:06:09.045Z,23.50
2022-08-20T00:08:47.938Z,23.40
2022-08-20T00:11:24.099Z,23.30
2022-08-20T00:13:56.421Z,23.30
2022-08-20T00:16:27.904Z,23.30
2022-08-20T00:18:57.268Z,23.20
2022-08-20T00:21:28.668Z,23.10
2022-08-20T00:23:59.395Z,23.20
2022-08-20T00:26:28.935Z,23.10
2022-08-20T00:28:56.535Z,23.10
2022-08-20T00:31:25.353Z,23.10
2022-08-20T00:33:53.989Z,23.00
2022-08-20T00:36:22.461Z,22.90
2022-08-20T00:39:00.682Z,22.80
2022-08-20T00:41:31.595Z,22.80
2022-08-20T00:44:13.739Z,22.70
2022-08-20T00:46:41.936Z,22.70
2022-08-20T00:49:19.842Z,22.70
2022-08-20T00:51:54.201Z,22.60
2022-08-20T00:54:26.664Z,22.50
2022-08-20T00:57:11.192Z,22.60
2022-08-20T00:59:50.079Z,22.50
2022-08-20T01:02:25.480Z,22.40
2022-08-20T01:04:58.268Z,22.40
2022-08-20T01:07:35.775Z,22.40
2022-08-20T01:10:13.142Z,22.40
2022-08-20T01:12:43.821Z,22.30
2022-08-20T01:15:15.767Z,22.30
2022-08-20T01:17:50.792Z,22.10
2022-08-20T01:20:43.380Z,22.10
2022-08-20T01:23:32.405Z,22.20
2022-08-20T01:26:11.239Z,22.10
2022-08-20T01:28:51.046Z,22.10
2022-08-20T01:31:27.617Z,22.10
2022-08-20T01:33:57.075Z,22.10
2022-08-20T01:36:34.722Z,22.00
2022-08-20T01:39:03.880Z,22.10
2022-08-20T01:41:37.747Z,22.00
2022-08-20T01:44:05.806Z,22.10
2022-08-20T01:46:43.930Z,22.00
2022-08-20T01:49:21.046Z,22.10
2022-08-20T01:51:52.949Z,22.00
2022-08-20T01:54:22.089Z,22.00
2022-08-20T01:57:12.491Z,22.10
2022-08-20T01:59:41.542Z,22.10
2022-08-20T02:02:10.474Z,22.10
2022-08-20T02:04:38.226Z,22.10
2022-08-20T02:07:17.683Z,22.10
2022-08-20T02:09:48.995Z,22.10
2022-08-20T02:12:16.794Z,22.10
2022-08-20T02:14:48.781Z,22.10
2022-08-20T02:17:17.271Z,22.00
2022-08-20T02:19:52.886Z,22.00
2022-08-20T02:22:38.690Z,21.90
2022-08-20T02:25:11.572Z,22.00
2022-08-20T02:27:43.694Z,21.80
2022-08-20T02:30:27.787Z,21.90
2022-08-20T02:32:57.114Z,21.80
2022-08-20T02:35:28.298Z,21.70
2022-08-20T02:37:56.842Z,21.60
2022-08-20T02:40:27.370Z,21.50
2022-08-20T02:43:01.190Z,21.60
2022-08-20T02:45:39.951Z,21.50
2022-08-20T02:48:07.190Z,21.50
2022-08-20T02:50:37.196Z,21.50
2022-08-20T02:53:08.340Z,21.40
2022-08-20T02:55:36.695Z,21.40
2022-08-20T02:58:03.940Z,21.50
2022-08-20T03:00:38.346Z,21.40
2022-08-20T03:03:11.027Z,21.50
2022-08-20T03:05:44.661Z,21.40
2022-08-20T03:08:14.755Z,21.40
2022-08-20T03:10:43.775Z,21.50
2022-08-20T03:13:12.916Z,21.40
2022-08-20T03:15:47.513Z,21.40
2022-08-20T03:18:17.345Z,21.40
2022-08-20T03:20:47.363Z,21.40
2022-08-20T03:23:21.834Z,21.40
2022-08-20T03:25:53.299Z,21.40
2022-08-20T03:28:20.594Z,21.40
2022-08-20T03:30:51.647Z,21.40
2022-08-20T03:33:20.808Z,21.30
2022-08-20T03:35:48.512Z,21.40
2022-08-20T03:38:18.208Z,21.40
2022-08-20T03:41:03.384Z,21.50
2022-08-20T03:43:33.480Z,21.50
2022-08-20T03:46:01.058Z,21.50
2022-08-20T03:48:28.984Z,21.60
2022-08-20T03:51:03.661Z,21.60
2022-08-20T03:53:31.963Z,21.70
2022-08-20T03:56:02.473Z,21.70
2022-08-20T03:58:35.019Z,21.70
2022-08-20T04:01:04.653Z,21.70
2022-08-20T04:03:35.832Z,21.80
2022-08-20T04:06:04.676Z,21.80
2022-08-20T04:08:32.471Z,21.80
2022-08-20T04:11:00.652Z,21.90
2022-08-20T04:13:29.770Z,22.00
2022-08-20T04:16:01.782Z,21.90
2022-08-20T04:18:29.941Z,22.00
2022-08-20T04:21:00.475Z,22.00
2022-08-20T04:23:34.183Z,22.00
2022-08-20T04:26:07.987Z,21.90
2022-08-20T04:28:38.593Z,22.00
2022-08-20T04:31:10.649Z,22.00
2022-08-20T04:33:44.074Z,22.00
2022-08-20T04:36:12.446Z,22.10
2022-08-20T04:38:49.817Z,22.00
2022-08-20T04:41:24.676Z,22.20
2022-08-20T04:43:57.314Z,22.20
2022-08-20T04:46:36.947Z,22.30
2022-08-20T04:49:09.776Z,22.30
2022-08-20T04:51:37.624Z,22.30
2022-08-20T04:54:07.379Z,22.40
2022-08-20T04:56:40.797Z,22.40
2022-08-20T04:59:09.050Z,22.40
2022-08-20T05:01:36.515Z,22.40
2022-08-20T05:04:04.362Z,22.50
2022-08-20T05:06:32.965Z,22.50
2022-08-20T05:09:03.152Z,22.60
2022-08-20T05:11:34.673Z,22.70
2022-08-20T05:14:09.646Z,23.00
2022-08-20T05:16:41.861Z,23.50
2022-08-20T05:19:12.259Z,24.20
2022-08-20T05:21:41.104Z,24.90
2022-08-20T05:24:13.675Z,25.50
2022-08-20T05:26:41.252Z,26.40
2022-08-20T05:29:11.607Z,27.20
2022-08-20T05:31:42.496Z,27.20
2022-08-20T05:34:12.347Z,26.80
2022-08-20T05:36:54.237Z,26.40
2022-08-20T05:39:23.908Z,26.10
2022-08-20T05:41:51.888Z,25.60
2022-08-20T05:44:19.917Z,25.40
2022-08-20T05:46:51.264Z,25.40
2022-08-20T05:49:21.456Z,26.20
2022-08-20T05:51:52.203Z,27.50
2022-08-20T05:54:24.719Z,29.30
2022-08-20T05:56:52.878Z,30.80
2022-08-20T05:59:24.277Z,31.80
2022-08-20T06:01:59.458Z,32.30
2022-08-20T06:04:32.584Z,32.90
2022-08-20T06:07:10.385Z,33.40
2022-08-20T06:09:38.437Z,34.00
2022-08-20T06:12:09.336Z,34.20
2022-08-20T06:14:37.484Z,34.60
2022-08-20T06:17:16.000Z,34.70
2022-08-20T06:19:47.848Z,35.40
2022-08-20T06:22:21.652Z,36.00
2022-08-20T06:24:55.271Z,36.40
2022-08-20T06:27:23.844Z,36.50
2022-08-20T06:29:54.014Z,36.50
2022-08-20T06:32:31.952Z,36.20
2022-08-20T06:35:06.204Z,36.20
2022-08-20T06:37:38.053Z,36.30
2022-08-20T06:40:12.792Z,36.70
2022-08-20T06:42:48.524Z,37.30
2022-08-20T06:45:31.227Z,37.80
2022-08-20T06:48:15.349Z,38.40
2022-08-20T06:50:47.646Z,38.40
2022-08-20T06:53:21.347Z,38.30
2022-08-20T06:55:55.687Z,38.40
2022-08-20T06:58:36.755Z,38.60
2022-08-20T07:01:17.083Z,38.50
2022-08-20T07:03:55.112Z,39.00
2022-08-20T07:06:27.644Z,39.80
2022-08-20T07:08:57.795Z,40.90
2022-08-20T07:11:28.900Z,41.30
2022-08-20T07:14:00.877Z,40.70
2022-08-20T07:16:32.164Z,40.30
2022-08-20T07:19:02.659Z,40.50
2022-08-20T07:21:30.630Z,41.00
2022-08-20T07:23:58.411Z,40.40
2022-08-20T07:26:40.005Z,39.40
2022-08-20T07:29:07.441Z,39.20
2022-08-20T07:31:53.593Z,39.40
2022-08-20T07:34:23.175Z,40.00
2022-08-20T07:36:53.268Z,40.70
2022-08-20T07:39:23.197Z,41.10
2022-08-20T07:42:03.684Z,41.10
2022-08-20T07:44:31.925Z,40.20
2022-08-20T07:47:00.069Z,39.40
2022-08-20T07:49:27.964Z,39.40
2022-08-20T07:51:59.851Z,39.40
2022-08-20T07:54:29.120Z,39.70
2022-08-20T07:57:04.178Z,40.40
2022-08-20T07:59:38.678Z,41.20
2022-08-20T08:02:06.730Z,42.00
2022-08-20T08:04:34.736Z,42.80
2022-08-20T08:07:02.701Z,42.70
2022-08-20T08:09:30.083Z,42.20
2022-08-20T08:12:05.481Z,41.10
2022-08-20T08:14:35.239Z,40.30
2022-08-20T08:17:04.845Z,39.90
2022-08-20T08:19:50.656Z,39.80
2022-08-20T08:22:20.340Z,40.30
2022-08-20T08:24:57.211Z,40.30
2022-08-20T08:27:34.463Z,40.20
2022-08-20T08:30:03.464Z,39.70
2022-08-20T08:32:32.395Z,39.50
2022-08-20T08:35:09.255Z,39.50
2022-08-20T08:37:39.919Z,39.90
2022-08-20T08:40:10.309Z,40.50
2022-08-20T08:42:46.277Z,41.20
2022-08-20T08:45:24.227Z,41.20
2022-08-20T08:47:51.834Z,40.70
2022-08-20T08:50:53.804Z,40.20
2022-08-20T08:54:04.618Z,40.10
2022-08-20T08:56:41.075Z,39.40
2022-08-20T08:59:09.272Z,39.30
2022-08-20T09:01:56.890Z,39.10
2022-08-20T09:04:37.505Z,39.10
2022-08-20T09:07:13.735Z,39.00
2022-08-20T09:09:45.013Z,38.60
2022-08-20T09:12:20.085Z,39.00
2022-08-20T09:14:51.998Z,39.00
2022-08-20T09:17:27.253Z,39.40
2022-08-20T09:19:54.919Z,39.50
2022-08-20T09:22:28.148Z,38.90
2022-08-20T09:25:03.491Z,38.60
2022-08-20T09:27:31.655Z,38.70
2022-08-20T09:30:07.424Z,39.00
2022-08-20T09:32:52.779Z,39.40
2022-08-20T09:35:23.395Z,39.30
2022-08-20T09:37:52.537Z,38.80
2022-08-20T09:40:21.347Z,38.40
2022-08-20T09:42:51.551Z,38.60
2022-08-20T09:45:19.611Z,38.50
2022-08-20T09:47:56.520Z,37.00
2022-08-20T09:50:26.452Z,36.00
2022-08-20T09:53:00.136Z,35.40
2022-08-20T09:55:46.647Z,35.10
2022-08-20T09:58:38.241Z,35.50
2022-08-20T10:01:14.392Z,35.20
2022-08-20T10:03:43.250Z,34.70
2022-08-20T10:06:12.123Z,34.70
2022-08-20T10:08:39.194Z,35.00
2022-08-20T10:11:06.870Z,35.30
2022-08-20T10:13:33.958Z,35.40
2022-08-20T10:16:01.531Z,35.50
2022-08-20T10:18:30.017Z,35.40
2022-08-20T10:20:57.909Z,35.00
2022-08-20T10:23:24.999Z,34.50
2022-08-20T10:25:55.822Z,34.10
2022-08-20T10:28:25.837Z,33.50
2022-08-20T10:30:53.881Z,33.20
2022-08-20T10:33:21.858Z,33.20
2022-08-20T10:35:49.072Z,32.80
2022-08-20T10:38:20.990Z,32.30
2022-08-20T10:40:52.340Z,32.10
2022-08-20T10:43:20.267Z,31.90
2022-08-20T10:45:50.048Z,31.80
2022-08-20T10:48:21.338Z,31.90
2022-08-20T10:50:50.807Z,31.50
2022-08-20T10:56:07.501Z,30.50
2022-08-20T10:58:39.249Z,30.10
2022-08-20T11:01:07.985Z,30.10
2022-08-20T11:03:37.398Z,30.00
2022-08-20T12:23:15.191Z,28.60
2022-08-20T12:25:43.553Z,28.60
2022-08-20T12:28:13.657Z,28.60
2022-08-20T12:30:41.573Z,28.60
2022-08-20T12:33:09.149Z,28.60
2022-08-20T12:35:37.087Z,28.70
2022-08-20T12:38:06.595Z,28.70
2022-08-20T12:40:34.570Z,28.90
2022-08-20T12:43:03.756Z,28.90
2022-08-20T12:45:33.015Z,29.00
2022-08-20T12:48:09.025Z,29.40
2022-08-20T12:50:38.179Z,29.60
2022-08-20T12:53:11.288Z,29.50
2022-08-20T12:55:39.154Z,29.50
2022-08-20T12:58:11.162Z,29.40
2022-08-20T13:00:47.332Z,29.30
2022-08-20T13:03:19.152Z,29.10
2022-08-20T13:05:47.107Z,29.10
2022-08-20T13:08:15.347Z,29.10
2022-08-20T13:10:46.902Z,29.10
2022-08-20T13:13:20.534Z,29.20
2022-08-20T13:15:50.987Z,29.20
2022-08-20T13:18:19.740Z,29.10
2022-08-20T13:20:50.817Z,29.20
2022-08-20T13:23:22.697Z,29.30
2022-08-20T13:25:53.485Z,29.50
2022-08-20T13:28:21.812Z,29.50
2022-08-20T13:30:49.641Z,29.50
2022-08-20T13:33:20.829Z,29.40
2022-08-20T13:35:48.624Z,29.20
2022-08-20T13:38:19.365Z,29.00
2022-08-20T13:40:49.040Z,29.10
2022-08-20T13:43:24.573Z,29.10
2022-08-20T13:45:52.145Z,29.20
2022-08-20T13:48:19.395Z,29.10
2022-08-20T13:50:47.260Z,29.10
2022-08-20T13:53:19.253Z,28.90
2022-08-20T13:55:55.556Z,28.80
2022-08-20T13:58:27.248Z,28.90
2022-08-20T14:00:59.386Z,28.90
2022-08-20T14:03:30.149Z,28.80
2022-08-20T14:06:04.175Z,28.90
2022-08-20T14:08:34.198Z,28.70
2022-08-20T14:11:02.360Z,28.40
2022-08-20T14:13:30.127Z,28.40
2022-08-20T14:16:00.215Z,28.50
2022-08-20T14:18:28.242Z,28.50
2022-08-20T14:20:55.934Z,28.40
2022-08-20T14:23:23.809Z,28.30
2022-08-20T14:25:51.775Z,28.10
2022-08-20T14:28:26.031Z,28.00
2022-08-20T14:30:53.969Z,27.70
2022-08-20T14:33:23.017Z,27.70
2022-08-20T14:35:53.344Z,27.70
2022-08-20T14:38:28.906Z,27.80
2022-08-20T14:41:13.572Z,27.70
2022-08-20T14:43:45.494Z,27.70
2022-08-20T14:46:28.661Z,27.70
2022-08-20T14:49:14.948Z,27.60
2022-08-20T14:51:45.506Z,27.60
2022-08-20T14:54:13.810Z,27.70
2022-08-20T14:56:46.862Z,27.70
2022-08-20T14:59:16.822Z,27.70
2022-08-20T15:01:44.729Z,27.50
2022-08-20T15:04:23.133Z,27.40
2022-08-20T15:06:57.013Z,27.30
2022-08-20T15:09:33.376Z,27.30
2022-08-20T15:12:08.088Z,27.20
2022-08-20T15:14:39.137Z,27.20
2022-08-20T15:17:30.475Z,27.10
2022-08-20T15:20:19.976Z,27.30
2022-08-20T15:23:01.402Z,27.20
2022-08-20T15:25:36.743Z,27.10
2022-08-20T15:28:12.306Z,27.20
2022-08-20T15:30:43.213Z,27.20
2022-08-20T15:33:17.171Z,27.20
2022-08-20T15:35:53.145Z,27.20
2022-08-20T15:38:25.396Z,27.20
2022-08-20T15:41:13.803Z,27.10
2022-08-20T15:43:41.155Z,27.00
2022-08-20T15:46:09.401Z,27.00
2022-08-20T15:48:42.177Z,26.90
2022-08-20T15:51:38.455Z,26.70
2022-08-20T15:54:12.527Z,26.60
2022-08-20T15:56:55.791Z,26.50
2022-08-20T15:59:43.995Z,26.50
2022-08-20T16:02:31.657Z,26.40
2022-08-20T16:05:20.403Z,26.40
2022-08-20T16:08:26.286Z,26.40
2022-08-20T16:11:30.129Z,26.20
2022-08-20T16:14:04.723Z,26.00
2022-08-20T16:19:26.219Z,25.60
2022-08-20T16:21:56.936Z,25.60
2022-08-20T16:24:27.041Z,25.70
2022-08-20T16:27:12.547Z,25.70
2022-08-20T16:30:04.860Z,25.70
2022-08-20T16:32:47.179Z,25.60
2022-08-20T16:36:07.195Z,25.50
2022-08-20T16:38:55.238Z,25.60
2022-08-20T16:41:24.997Z,25.60
2022-08-20T16:44:05.306Z,25.50
2022-08-20T16:46:38.341Z,25.50
2022-08-20T16:49:13.975Z,25.40
2022-08-20T16:51:53.078Z,25.40
2022-08-20T16:54:30.793Z,25.20
2022-08-20T16:57:02.172Z,25.10
2022-08-20T16:59:30.338Z,25.00
2022-08-20T17:02:11.967Z,24.90
2022-08-20T17:04:50.437Z,24.80
2022-08-20T17:07:52.885Z,24.70
2022-08-20T17:10:32.221Z,24.50
2022-08-20T17:13:23.783Z,24.40
2022-08-20T17:16:02.103Z,24.40
2022-08-20T17:18:37.289Z,24.30
2022-08-20T17:21:27.278Z,24.20
2022-08-20T17:24:22.194Z,24.20
2022-08-20T17:27:16.229Z,24.10
2022-08-20T17:29:58.268Z,24.10
2022-08-20T17:32:29.084Z,24.10
2022-08-20T17:35:01.082Z,24.00
2022-08-20T17:37:40.806Z,24.00
2022-08-20T17:40:17.442Z,24.00
2022-08-20T17:42:54.093Z,24.00
2022-08-20T17:45:43.101Z,23.80
2022-08-20T17:48:24.499Z,23.90
2022-08-20T17:50:55.404Z,23.80
2022-08-20T17:53:29.899Z,23.80
2022-08-20T17:56:19.884Z,23.70
2022-08-20T17:59:23.945Z,23.70
2022-08-20T18:02:04.072Z,23.60
2022-08-20T18:04:32.778Z,23.60
2022-08-20T18:07:27.186Z,23.60
2022-08-20T18:10:09.799Z,23.60
2022-08-20T18:12:59.075Z,23.60
2022-08-20T18:15:32.796Z,23.50
2022-08-20T18:18:09.168Z,23.40
2022-08-20T18:21:22.276Z,23.40
2022-08-20T18:24:20.738Z,23.30
2022-08-20T18:26:58.621Z,23.40
2022-08-20T18:29:38.415Z,23.30
2022-08-20T18:32:21.375Z,23.30
2022-08-20T18:34:48.835Z,23.20
2022-08-20T18:37:22.819Z,23.10
2022-08-20T18:39:51.553Z,23.10
2022-08-20T18:42:31.480Z,23.10
2022-08-20T18:44:59.342Z,23.10
2022-08-20T18:47:33.422Z,23.10
2022-08-20T18:50:15.866Z,23.20
2022-08-20T18:53:07.254Z,23.10
2022-08-20T18:55:40.345Z,23.10
2022-08-20T18:58:12.127Z,23.10
2022-08-20T19:00:49.301Z,23.00
2022-08-20T19:03:32.118Z,23.00
2022-08-20T19:06:43.842Z,22.90
2022-08-20T19:09:40.822Z,22.80
2022-08-20T19:12:24.934Z,22.80
2022-08-20T19:15:13.707Z,22.80
2022-08-20T19:17:50.009Z,22.70
2022-08-20T19:20:22.812Z,22.70
2022-08-20T19:22:52.952Z,22.80
2022-08-20T19:25:26.914Z,22.80
2022-08-20T19:27:55.966Z,22.70
2022-08-20T19:30:41.854Z,22.70
2022-08-20T19:33:11.366Z,22.70
2022-08-20T19:35:42.620Z,22.70
2022-08-20T19:38:17.664Z,22.70
2022-08-20T19:40:46.283Z,22.70
2022-08-20T19:43:19.472Z,22.60
2022-08-20T19:46:01.609Z,22.50
2022-08-20T19:48:43.680Z,22.60
2022-08-20T19:51:48.014Z,22.50
2022-08-20T19:54:25.680Z,22.40
2022-08-20T19:57:07.728Z,22.50
2022-08-20T19:59:36.339Z,22.40
2022-08-20T20:02:20.076Z,22.40
2022-08-20T20:04:54.832Z,22.30
2022-08-20T20:07:27.123Z,22.20
2022-08-20T20:09:56.335Z,22.20
2022-08-20T20:12:27.336Z,22.10
2022-08-20T20:14:58.026Z,22.10
2022-08-20T20:17:31.143Z,22.00
2022-08-20T20:20:01.104Z,22.10
2022-08-20T20:22:47.264Z,22.10
2022-08-20T20:25:21.138Z,22.10
2022-08-20T20:27:57.357Z,22.00
2022-08-20T20:30:35.164Z,22.10
2022-08-20T20:33:33.813Z,22.00
2022-08-20T20:36:10.978Z,22.00
2022-08-20T20:38:58.924Z,22.00
2022-08-20T20:41:29.694Z,22.00
2022-08-20T20:44:17.100Z,22.10
2022-08-20T20:46:47.712Z,22.00
2022-08-20T20:52:22.653Z,22.00
2022-08-20T20:54:50.800Z,21.90
2022-08-20T20:57:36.297Z,22.00
2022-08-20T21:00:13.564Z,22.00
2022-08-20T21:02:41.672Z,22.00
2022-08-20T21:05:10.613Z,22.00
2022-08-20T21:08:00.295Z,22.00
2022-08-20T21:10:30.320Z,21.90
2022-08-20T21:12:57.849Z,21.80
2022-08-20T21:15:26.594Z,21.80
2022-08-20T21:17:56.488Z,21.90
2022-08-20T21:20:24.687Z,21.80
2022-08-20T21:22:53.384Z,21.80
2022-08-20T21:25:23.641Z,21.80
2022-08-20T21:27:53.073Z,21.80
2022-08-20T21:30:24.406Z,21.80
2022-08-20T21:32:52.081Z,21.90
2022-08-20T21:35:20.258Z,21.80
2022-08-20T21:37:48.212Z,21.80
2022-08-20T21:40:18.116Z,21.80
2022-08-20T21:42:50.186Z,21.70
2022-08-20T21:45:19.662Z,21.80
2022-08-20T21:47:48.775Z,21.80
2022-08-20T21:50:20.500Z,21.70
2022-08-20T21:52:55.167Z,21.70
2022-08-20T21:55:35.030Z,21.70
2022-08-20T21:58:04.982Z,21.60
2022-08-20T22:00:50.309Z,21.60
2022-08-20T22:03:20.050Z,21.60
2022-08-20T22:05:48.845Z,21.60
2022-08-20T22:08:19.902Z,21.60
2022-08-20T22:10:50.779Z,21.50
2022-08-20T22:13:18.500Z,21.60
2022-08-20T22:15:46.513Z,21.40
2022-08-20T22:18:14.389Z,21.50
2022-08-20T22:20:42.484Z,21.50
2022-08-20T22:23:10.653Z,21.50
2022-08-20T22:25:38.091Z,21.40
2022-08-20T22:28:05.637Z,21.40
2022-08-20T22:30:34.310Z,21.30
2022-08-20T22:33:11.993Z,21.40
2022-08-20T22:35:49.462Z,21.40
2022-08-20T22:38:20.541Z,21.30
2022-08-20T22:40:48.619Z,21.30
2022-08-20T22:43:18.680Z,21.30
2022-08-20T22:45:49.571Z,21.20
2022-08-20T22:48:20.332Z,21.20
2022-08-20T22:50:52.250Z,21.20
2022-08-20T22:53:22.266Z,21.20
2022-08-20T22:55:52.162Z,21.10
2022-08-20T22:58:20.263Z,21.20
2022-08-20T23:01:03.680Z,21.00
2022-08-20T23:03:39.830Z,21.00
2022-08-20T23:06:11.813Z,21.10
2022-08-20T23:08:39.975Z,21.00
2022-08-20T23:11:07.882Z,21.10
2022-08-20T23:13:35.017Z,21.00
2022-08-20T23:16:02.735Z,21.10
2022-08-20T23:18:30.060Z,21.00
2022-08-20T23:21:10.909Z,21.00
2022-08-20T23:23:38.639Z,20.90
2022-08-20T23:26:08.357Z,21.00
2022-08-20T23:28:37.953Z,20.90
2022-08-20T23:31:05.525Z,20.80
2022-08-20T23:33:35.949Z,20.90
2022-08-20T23:36:05.683Z,20.80
2022-08-20T23:38:36.808Z,20.90
2022-08-20T23:41:07.769Z,20.80
2022-08-20T23:43:38.567Z,20.80
2022-08-20T23:46:14.795Z,20.70
2022-08-20T23:48:46.186Z,20.70
2022-08-20T23:51:13.601Z,20.70
2022-08-20T23:53:46.453Z,20.70
2022-08-20T23:56:13.567Z,20.70
2022-08-20T23:58:40.564Z,20.70
